Terminal Aerodrome Forecast
Issued by NWS

Home | Current Version | Previous Version | Graphics & Text | Print | Product List | Glossary On
Versions: 1 2 3 4 5 6 7 8 9 10 11 12 13 14 15 16
000
FTUS43 KOAX 262325
TAFCDR
TAF
KCDR 262325Z 2700/2724 05008KT P6SM OVC015
      TEMPO 2700/2702 3SM BR OVC009
     FM270200 33005KT 1SM BR OVC011
     FM270800 28007KT 3SM BR OVC022
     FM271500 26009KT P6SM BKN050=

USA.gov is the U.S. government's official web portal to all federal, state and local government web resources and services.